Pensacola Naval Air Station,Forrest Sherman field Pensacola US
ICAO: KNPA
IATA: NPA
Category: Medium
Scheduled Services: No

Elevation: 28 ft
TransAlt. 18000 ft.

Airport Communications:
APP:120.05
ATIS:26.76
SHERMAN CLNC DEL:134.1
DEP:120.65
SHERMAN GND:121.7
SHERMAN BASE OPS:31.21
PMSV METRO:35.96
SHERMAN TWR:120.7

KNPA Zoom In..

Runways:

(A) RW 01 length 7137 ft width 200 ft
---- / hdg 7

(B) RW 07L length 8002 ft width 200 ft
ILS 109.30 / hdg 70

(C) RW 07R length 8001 ft width 200 ft
---- / hdg 69

(D) RW 19 length 7137 ft width 200 ft
---- / hdg 187

(E) RW 25L length 8001 ft width 200 ft
---- / hdg 249

(F) RW 25R length 8002 ft width 200 ft
---- / hdg 250

Location; KNPA
Day. 05 / Time. 17.56 Zulu
* Altimeter: 29.98
* Temperature: 33° c. 91.4°f.
* Wind from: 200° Speed 13 kn.
Dewpoint: 22° c.
Visibility: 10 Statute Miles.
Clouds: Few 3000 ft.
Clouds: Scattered 25000 ft.
Conditions: Cumulonimbus.

KNPA 051756Z 20013KT 10SM FEW030 SCT250 33/22 A2998 RMK AO2 SLP155 CB DSNT N AND NE T2 SET T03330217 10333 20250 51003

Going to: --> -->


Wind From 200°
Speed 13 kn.

 
 
jpsmedia worldairports.se 2020   terms of use